Time;durP1;ratioP1;P1;durP2;ratioP2;P2;SDS_P1;SDS_P2;PMS_P1;PMS_P2;Temp;Humidity;BMP_temperature;BMP_pressure;BME280_temperature;BME280_humidity;BME280_pressure;Samples;Min_cycle;Max_cycle;Signal;HPM_P1;HPM_P2
2024/02/28 00:01:52;;;;;;;44.85;31.35;;;;;;;2.28;100.00;101874.34;5060883;28;20033;-78
2024/02/28 00:04:18;;;;;;;43.67;30.88;;;;;;;2.19;100.00;101873.88;5058712;28;20063;-78
2024/02/28 00:06:46;;;;;;;42.65;31.05;;;;;;;2.16;100.00;101871.09;5064207;28;20049;-78
2024/02/28 00:09:13;;;;;;;44.58;31.13;;;;;;;2.15;100.00;101874.50;5059970;28;20086;-78
2024/02/28 00:11:46;;;;;;;43.97;31.58;;;;;;;2.18;100.00;101864.22;5056742;28;20029;-78
2024/02/28 00:14:14;;;;;;;45.53;31.92;;;;;;;2.32;100.00;101883.28;5055929;28;20029;-78
2024/02/28 00:16:44;;;;;;;43.20;30.92;;;;;;;2.37;100.00;101881.78;5057105;28;20476;-78
2024/02/28 00:19:13;;;;;;;42.40;29.95;;;;;;;2.40;100.00;101885.47;5055564;28;20040;-78
2024/02/28 00:21:41;;;;;;;42.75;29.90;;;;;;;2.50;100.00;101883.34;5063187;28;20033;-78
2024/02/28 00:24:07;;;;;;;44.78;31.60;;;;;;;2.77;100.00;101876.97;5061138;28;20033;-78
2024/02/28 00:26:32;;;;;;;42.38;30.40;;;;;;;2.82;100.00;101868.50;5063270;28;20040;-79
2024/02/28 00:28:57;;;;;;;41.97;30.25;;;;;;;2.91;100.00;101863.75;5062151;28;20024;-80
2024/02/28 00:31:23;;;;;;;39.80;28.10;;;;;;;2.97;100.00;101870.19;5062005;28;20499;-80
2024/02/28 00:33:48;;;;;;;39.00;28.23;;;;;;;3.03;100.00;101864.41;5062071;28;20120;-80
2024/02/28 00:36:15;;;;;;;41.17;29.02;;;;;;;3.05;100.00;101857.50;5060566;28;20143;-80
2024/02/28 00:38:41;;;;;;;38.58;26.95;;;;;;;3.00;100.00;101856.41;5063192;28;20386;-80
2024/02/28 00:41:06;;;;;;;36.45;26.48;;;;;;;2.91;100.00;101853.28;5061068;28;20028;-81
2024/02/28 00:43:31;;;;;;;37.80;26.85;;;;;;;2.77;100.00;101861.31;5064202;28;20029;-80
2024/02/28 00:45:58;;;;;;;37.88;27.88;;;;;;;2.71;100.00;101858.38;5066283;28;20048;-80
2024/02/28 00:48:23;;;;;;;37.50;26.77;;;;;;;2.59;100.00;101861.25;5065598;28;20108;-80
2024/02/28 00:50:49;;;;;;;38.42;28.52;;;;;;;2.62;100.00;101850.06;5067470;28;20398;-81
2024/02/28 00:53:14;;;;;;;38.67;27.65;;;;;;;2.53;100.00;101870.47;5064318;28;20033;-80
2024/02/28 00:55:39;;;;;;;39.45;28.15;;;;;;;2.57;100.00;101867.19;5067673;28;20455;-81
2024/02/28 00:58:04;;;;;;;39.60;28.40;;;;;;;2.60;100.00;101865.63;5063706;28;20029;-81
2024/02/28 01:00:30;;;;;;;40.55;30.50;;;;;;;2.65;100.00;101863.31;5066327;28;20442;-79
2024/02/28 01:02:55;;;;;;;41.25;29.35;;;;;;;2.60;100.00;101864.75;5065937;28;20364;-79
2024/02/28 01:05:21;;;;;;;39.60;28.52;;;;;;;2.50;100.00;101865.97;5065004;28;20055;-79
2024/02/28 01:07:46;;;;;;;38.95;28.55;;;;;;;2.36;100.00;101867.84;5067067;28;20078;-79
2024/02/28 01:10:12;;;;;;;39.00;28.20;;;;;;;2.28;100.00;101869.13;5042726;28;20030;-80
2024/02/28 01:12:37;;;;;;;37.63;27.25;;;;;;;2.20;100.00;101859.97;5067005;28;20056;-80
2024/02/28 01:15:03;;;;;;;38.53;27.08;;;;;;;2.14;100.00;101857.03;5064710;28;20024;-80
2024/02/28 01:17:28;;;;;;;38.95;27.45;;;;;;;2.02;100.00;101850.34;5064568;28;20178;-79
2024/02/28 01:19:54;;;;;;;37.20;25.85;;;;;;;1.92;100.00;101848.94;5065964;28;20479;-80
2024/02/28 01:22:19;;;;;;;38.22;27.50;;;;;;;1.83;100.00;101842.31;5064497;28;20074;-80
2024/02/28 01:24:44;;;;;;;39.00;28.55;;;;;;;1.78;100.00;101838.53;5067269;28;20032;-80
2024/02/28 01:27:10;;;;;;;37.95;27.25;;;;;;;1.77;100.00;101844.59;5063788;28;20510;-80
2024/02/28 01:29:35;;;;;;;38.63;27.77;;;;;;;1.82;100.00;101843.13;5066814;28;20037;-80
2024/02/28 01:32:01;;;;;;;36.67;25.80;;;;;;;1.73;100.00;101847.03;5064922;28;20032;-80
2024/02/28 01:34:26;;;;;;;36.53;26.08;;;;;;;1.70;100.00;101840.72;5065117;28;20036;-80
2024/02/28 01:36:51;;;;;;;37.97;26.38;;;;;;;1.69;100.00;101850.28;5066178;28;20028;-81
2024/02/28 01:39:17;;;;;;;38.33;27.75;;;;;;;1.76;100.00;101855.81;5062664;28;20162;-80
2024/02/28 01:41:51;;;;;;;37.70;27.42;;;;;;;1.80;100.00;101860.41;5066837;28;20035;-81
2024/02/28 01:44:16;;;;;;;39.92;29.20;;;;;;;1.76;100.00;101861.91;5060514;28;20025;-81
2024/02/28 01:46:42;;;;;;;39.35;29.95;;;;;;;1.80;100.00;101861.28;5066938;28;20047;-80
2024/02/28 01:49:07;;;;;;;37.70;27.85;;;;;;;1.78;100.00;101862.00;5062365;28;20055;-80
2024/02/28 01:51:33;;;;;;;39.72;30.50;;;;;;;1.76;100.00;101869.75;5065675;28;20112;-80
2024/02/28 01:53:59;;;;;;;38.95;29.17;;;;;;;1.75;100.00;101867.97;5047182;28;20175;-78
2024/02/28 01:56:25;;;;;;;39.38;29.38;;;;;;;1.78;100.00;101869.81;5063463;28;20056;-78
2024/02/28 01:58:52;;;;;;;37.30;29.05;;;;;;;1.68;100.00;101860.63;5065600;28;20040;-78
2024/02/28 02:01:17;;;;;;;37.67;29.75;;;;;;;1.62;100.00;101863.75;5062438;28;20476;-78
2024/02/28 02:03:46;;;;;;;39.35;29.85;;;;;;;1.56;100.00;101868.63;5066405;28;20020;-78
2024/02/28 02:06:12;;;;;;;38.42;30.02;;;;;;;1.43;100.00;101866.09;5058921;28;20518;-78
2024/02/28 02:08:38;;;;;;;38.10;29.40;;;;;;;1.33;100.00;101865.59;5066212;28;20028;-78
2024/02/28 02:11:04;;;;;;;38.00;28.58;;;;;;;1.26;100.00;101868.63;5063496;28;20033;-78
2024/02/28 02:13:30;;;;;;;36.60;28.05;;;;;;;1.10;100.00;101873.75;5064826;28;20067;-78
2024/02/28 02:15:55;;;;;;;37.83;29.15;;;;;;;1.06;100.00;101870.06;5064835;28;20024;-78
2024/02/28 02:18:20;;;;;;;39.70;28.00;;;;;;;1.01;100.00;101872.41;5062550;28;20041;-78
2024/02/28 02:20:50;;;;;;;37.97;29.25;;;;;;;1.08;100.00;101872.75;5066166;28;20108;-78
2024/02/28 02:23:15;;;;;;;38.72;29.70;;;;;;;0.94;100.00;101870.22;5061556;28;20029;-78
2024/02/28 02:25:48;;;;;;;38.42;28.85;;;;;;;1.04;100.00;101863.88;5066011;28;20031;-78
2024/02/28 02:28:14;;;;;;;38.22;28.95;;;;;;;1.02;100.00;101858.59;5058902;28;20461;-78
2024/02/28 02:30:41;;;;;;;38.65;29.20;;;;;;;1.10;100.00;101863.34;5058440;28;20043;-78
2024/02/28 02:33:07;;;;;;;38.45;29.85;;;;;;;1.07;100.00;101865.78;5065596;28;20380;-78
2024/02/28 02:35:33;;;;;;;39.13;29.25;;;;;;;0.99;100.00;101863.63;5063354;28;20020;-78
2024/02/28 02:37:58;;;;;;;38.15;29.17;;;;;;;0.96;100.00;101871.25;5064379;28;20029;-78
2024/02/28 02:40:24;;;;;;;39.08;29.52;;;;;;;0.88;100.00;101876.81;5064402;28;20033;-80
2024/02/28 02:42:50;;;;;;;38.85;28.45;;;;;;;0.82;100.00;101869.50;5061711;28;20033;-80
2024/02/28 02:45:16;;;;;;;40.05;30.02;;;;;;;0.85;100.00;101874.91;5065613;28;20025;-79
2024/02/28 02:47:43;;;;;;;39.22;29.67;;;;;;;0.83;100.00;101879.09;5062374;28;20147;-80
2024/02/28 02:50:09;;;;;;;40.70;30.60;;;;;;;0.84;100.00;101880.91;5065266;28;20033;-80
2024/02/28 02:52:34;;;;;;;39.35;29.70;;;;;;;0.79;100.00;101877.16;5062938;28;20443;-80
2024/02/28 02:55:00;;;;;;;39.20;29.75;;;;;;;0.81;100.00;101884.22;5062769;28;20116;-80
2024/02/28 02:57:25;;;;;;;39.00;29.83;;;;;;;0.81;100.00;101881.63;5063759;28;20100;-80
2024/02/28 02:59:50;;;;;;;39.75;30.48;;;;;;;0.67;100.00;101875.59;5062757;28;20048;-80
2024/02/28 03:02:16;;;;;;;40.45;29.38;;;;;;;0.62;100.00;101886.53;5065229;28;20153;-80
2024/02/28 03:04:41;;;;;;;39.72;30.73;;;;;;;0.67;100.00;101877.28;5061751;28;20025;-79
2024/02/28 03:07:06;;;;;;;39.85;29.95;;;;;;;0.65;100.00;101887.59;5064620;28;20040;-80
2024/02/28 03:09:32;;;;;;;41.15;30.88;;;;;;;0.66;100.00;101876.38;5061723;28;20036;-81
2024/02/28 03:11:57;;;;;;;40.22;30.13;;;;;;;0.63;100.00;101872.72;5062194;28;20029;-80
2024/02/28 03:14:25;;;;;;;39.13;30.67;;;;;;;0.73;100.00;101869.84;5064310;28;20115;-80
2024/02/28 03:16:50;;;;;;;41.05;30.80;;;;;;;0.65;100.00;101878.91;5062158;28;20029;-80
2024/02/28 03:19:16;;;;;;;41.10;31.33;;;;;;;0.69;100.00;101884.38;5065201;28;20040;-80
2024/02/28 03:21:41;;;;;;;41.60;31.42;;;;;;;0.67;100.00;101885.06;5061556;28;20029;-78
2024/02/28 03:24:07;;;;;;;40.65;31.92;;;;;;;0.65;100.00;101887.59;5064591;28;20078;-78
2024/02/28 03:26:32;;;;;;;41.05;31.02;;;;;;;0.69;100.00;101888.69;5062695;28;20384;-78
2024/02/28 03:28:58;;;;;;;40.85;31.83;;;;;;;0.74;100.00;101882.03;5063265;28;20033;-78
2024/02/28 03:31:24;;;;;;;39.42;30.95;;;;;;;0.76;100.00;101888.25;5062260;28;20021;-79
2024/02/28 03:33:49;;;;;;;40.72;31.33;;;;;;;0.76;100.00;101883.06;5061935;28;20044;-78
2024/02/28 03:36:15;;;;;;;41.03;30.95;;;;;;;0.77;100.00;101881.34;5064670;28;20033;-79
2024/02/28 03:38:40;;;;;;;41.63;31.63;;;;;;;0.76;100.00;101876.94;5061263;28;20107;-78
2024/02/28 03:41:06;;;;;;;40.83;31.38;;;;;;;0.76;100.00;101872.66;5062837;28;20127;-78
2024/02/28 03:43:31;;;;;;;40.40;31.50;;;;;;;0.74;100.00;101881.16;5062306;28;20070;-78
2024/02/28 03:45:56;;;;;;;41.38;31.35;;;;;;;0.72;100.00;101878.47;5062586;28;20033;-78
2024/02/28 03:48:22;;;;;;;42.13;32.20;;;;;;;0.72;100.00;101874.97;5062588;28;20017;-78
2024/02/28 03:50:47;;;;;;;40.30;30.90;;;;;;;0.70;100.00;101877.50;5061160;28;20033;-78
2024/02/28 03:53:12;;;;;;;43.83;33.33;;;;;;;0.69;100.00;101873.97;5064675;28;20031;-78
2024/02/28 03:55:38;;;;;;;41.45;31.58;;;;;;;0.65;100.00;101871.97;5061360;28;20063;-78
2024/02/28 03:58:03;;;;;;;41.55;32.13;;;;;;;0.68;100.00;101882.59;5062054;28;20032;-78
2024/02/28 04:00:29;;;;;;;44.08;33.88;;;;;;;0.67;100.00;101877.28;5062740;28;20399;-78
2024/02/28 04:02:54;;;;;;;41.03;31.80;;;;;;;0.59;100.00;101876.81;5062016;28;20419;-78
2024/02/28 04:05:20;;;;;;;42.97;33.67;;;;;;;0.60;100.00;101875.13;5063809;28;20061;-78
2024/02/28 04:07:45;;;;;;;42.55;32.28;;;;;;;0.58;100.00;101872.41;5061318;28;20166;-78
2024/02/28 04:10:11;;;;;;;45.08;33.47;;;;;;;0.53;100.00;101876.44;5064082;28;20124;-78
2024/02/28 04:12:36;;;;;;;45.58;33.53;;;;;;;0.56;100.00;101881.84;5061628;28;20124;-78
2024/02/28 04:15:02;;;;;;;44.28;33.30;;;;;;;0.55;100.00;101880.03;5061786;28;20024;-78
2024/02/28 04:17:28;;;;;;;44.47;33.55;;;;;;;0.60;100.00;101878.63;5063504;28;20028;-78
2024/02/28 04:19:53;;;;;;;43.75;33.60;;;;;;;0.67;100.00;101886.00;5066981;28;20552;-78
2024/02/28 04:22:19;;;;;;;45.58;33.22;;;;;;;0.71;100.00;101880.97;5070636;28;20036;-78
2024/02/28 04:24:44;;;;;;;42.90;31.75;;;;;;;0.73;100.00;101884.56;5067317;28;20040;-78
2024/02/28 04:27:11;;;;;;;42.00;31.65;;;;;;;0.78;100.00;101889.25;5069443;28;20154;-78
2024/02/28 04:29:37;;;;;;;41.92;30.52;;;;;;;0.83;100.00;101881.69;5068113;28;20157;-78
2024/02/28 04:32:02;;;;;;;41.00;30.80;;;;;;;0.86;100.00;101884.53;5069475;28;20136;-78
2024/02/28 04:34:27;;;;;;;43.00;31.55;;;;;;;0.92;100.00;101884.88;5068121;28;20418;-78
2024/02/28 04:36:53;;;;;;;41.75;31.15;;;;;;;0.91;100.00;101880.47;5068183;28;20515;-78
2024/02/28 04:39:18;;;;;;;42.00;31.33;;;;;;;0.88;100.00;101877.69;5069068;28;20206;-78
2024/02/28 04:41:43;;;;;;;40.53;30.75;;;;;;;0.85;100.00;101875.78;5067389;28;20040;-78
2024/02/28 04:44:09;;;;;;;40.45;30.70;;;;;;;0.79;100.00;101874.53;5069056;28;20456;-78
2024/02/28 04:46:34;;;;;;;39.45;30.25;;;;;;;0.75;100.00;101872.56;5067095;28;20028;-78
2024/02/28 04:49:00;;;;;;;41.45;31.30;;;;;;;0.69;100.00;101876.56;5069211;28;20032;-78
2024/02/28 04:51:25;;;;;;;41.10;31.15;;;;;;;0.64;100.00;101880.59;5069266;28;20115;-78
2024/02/28 04:53:50;;;;;;;41.95;32.42;;;;;;;0.65;100.00;101885.00;5067628;28;20029;-78
2024/02/28 04:56:16;;;;;;;43.90;33.20;;;;;;;0.66;100.00;101889.41;5069700;28;20020;-79
2024/02/28 04:58:41;;;;;;;43.35;33.28;;;;;;;0.65;100.00;101898.00;5067191;28;20503;-78
2024/02/28 05:01:06;;;;;;;41.92;31.98;;;;;;;0.65;100.00;101897.13;5069729;28;20085;-78
2024/02/28 05:03:32;;;;;;;44.78;33.15;;;;;;;0.62;100.00;101896.94;5068825;28;20025;-78
2024/02/28 05:05:57;;;;;;;42.53;33.35;;;;;;;0.62;100.00;101902.13;5068283;28;20099;-79
2024/02/28 05:08:22;;;;;;;44.45;34.63;;;;;;;0.61;100.00;101905.53;5068384;28;20078;-78
2024/02/28 05:10:50;;;;;;;44.50;33.65;;;;;;;0.56;100.00;101899.16;5066874;28;20116;-79
2024/02/28 05:13:15;;;;;;;45.30;34.42;;;;;;;0.53;100.00;101902.47;5052509;28;20028;-78
2024/02/28 05:15:41;;;;;;;45.20;35.63;;;;;;;0.50;100.00;101907.47;5067085;28;20134;-78
2024/02/28 05:18:06;;;;;;;45.25;34.40;;;;;;;0.46;100.00;101913.28;5068337;28;20036;-78
2024/02/28 05:20:32;;;;;;;46.05;35.22;;;;;;;0.43;100.00;101918.31;5068168;28;20378;-81
2024/02/28 05:22:57;;;;;;;46.42;35.53;;;;;;;0.43;100.00;101920.91;5068332;28;20074;-81
2024/02/28 05:25:22;;;;;;;48.03;35.35;;;;;;;0.36;100.00;101934.34;5069443;28;20039;-80
2024/02/28 05:27:48;;;;;;;47.58;35.42;;;;;;;0.38;100.00;101932.72;5066816;28;20025;-78
2024/02/28 05:30:13;;;;;;;47.20;36.58;;;;;;;0.44;100.00;101940.94;5068264;28;20112;-79
2024/02/28 05:32:38;;;;;;;46.08;36.05;;;;;;;0.47;100.00;101938.53;5062834;28;20369;-79
2024/02/28 05:35:04;;;;;;;47.05;36.28;;;;;;;0.56;100.00;101939.09;5065839;28;20361;-81
2024/02/28 05:37:30;;;;;;;48.05;36.88;;;;;;;0.60;100.00;101935.00;5065323;28;20143;-81
2024/02/28 05:39:55;;;;;;;46.38;35.78;;;;;;;0.66;100.00;101933.66;5063712;28;20033;-81
2024/02/28 05:42:24;;;;;;;47.47;36.42;;;;;;;0.71;100.00;101930.44;5066328;28;20056;-78
2024/02/28 05:44:50;;;;;;;48.13;35.92;;;;;;;0.74;100.00;101926.28;5062679;28;20091;-81
2024/02/28 05:47:15;;;;;;;46.45;35.72;;;;;;;0.79;100.00;101935.31;5066983;28;20041;-81
2024/02/28 05:49:41;;;;;;;46.97;34.47;;;;;;;0.81;100.00;101932.78;5063389;28;20029;-80
2024/02/28 05:52:06;;;;;;;46.17;34.10;;;;;;;0.85;100.00;101937.38;5066018;28;20040;-80
2024/02/28 05:54:33;;;;;;;45.42;34.28;;;;;;;0.88;100.00;101934.97;5064484;28;20481;-81
2024/02/28 05:56:59;;;;;;;45.35;34.60;;;;;;;0.90;100.00;101935.94;5064858;28;20495;-81
2024/02/28 05:59:25;;;;;;;45.45;34.33;;;;;;;0.91;100.00;101936.88;5066064;28;20025;-78
2024/02/28 06:01:50;;;;;;;45.30;33.33;;;;;;;0.91;100.00;101937.75;5063445;28;20133;-78
2024/02/28 06:04:16;;;;;;;47.83;35.15;;;;;;;0.89;100.00;101935.84;5066722;28;20032;-78
2024/02/28 06:06:42;;;;;;;45.70;32.35;;;;;;;0.85;100.00;101934.78;5062761;28;20056;-78
2024/02/28 06:09:07;;;;;;;45.85;33.20;;;;;;;0.80;100.00;101936.19;5064442;28;20032;-78
2024/02/28 06:11:33;;;;;;;45.53;33.55;;;;;;;0.74;100.00;101938.44;5064345;28;20037;-78
2024/02/28 06:13:58;;;;;;;45.88;33.55;;;;;;;0.70;100.00;101937.34;5063149;28;20104;-78
2024/02/28 06:16:24;;;;;;;45.33;33.00;;;;;;;0.68;100.00;101926.84;5065233;28;20029;-78
2024/02/28 06:18:49;;;;;;;45.75;33.65;;;;;;;0.67;100.00;101930.25;5063180;28;20025;-79
2024/02/28 06:21:15;;;;;;;46.70;34.03;;;;;;;0.69;100.00;101941.63;5066199;28;20032;-78
2024/02/28 06:23:40;;;;;;;45.90;33.40;;;;;;;0.67;100.00;101942.34;5062974;28;20075;-78
2024/02/28 06:26:06;;;;;;;47.03;33.60;;;;;;;0.67;100.00;101935.44;5064047;28;20035;-78
2024/02/28 06:28:32;;;;;;;48.22;34.97;;;;;;;0.72;100.00;101940.94;5064160;28;20021;-79
2024/02/28 06:30:57;;;;;;;48.65;34.63;;;;;;;0.76;100.00;101944.63;5062444;28;20500;-78
2024/02/28 06:33:23;;;;;;;48.72;34.55;;;;;;;0.80;100.00;101946.59;5065350;28;20115;-78
2024/02/28 06:35:48;;;;;;;46.88;34.28;;;;;;;0.82;100.00;101950.22;5061140;28;20036;-79
2024/02/28 06:38:13;;;;;;;46.40;33.33;;;;;;;0.88;100.00;101952.31;5065987;28;20024;-78
2024/02/28 06:40:39;;;;;;;49.05;34.85;;;;;;;0.86;100.00;101958.31;5062252;28;20040;-78
2024/02/28 06:43:05;;;;;;;48.55;33.55;;;;;;;0.91;100.00;101955.97;5064761;28;20021;-79
2024/02/28 06:45:30;;;;;;;47.05;33.88;;;;;;;0.94;100.00;101963.97;5063974;28;20029;-79
2024/02/28 06:47:55;;;;;;;48.13;33.70;;;;;;;0.96;100.00;101972.81;5063125;28;20029;-78
2024/02/28 06:50:21;;;;;;;46.47;33.15;;;;;;;0.97;100.00;101971.97;5064995;28;20116;-78
2024/02/28 06:52:46;;;;;;;48.13;33.20;;;;;;;0.96;100.00;101966.69;5062255;28;20032;-78
2024/02/28 06:55:14;;;;;;;46.03;32.85;;;;;;;0.96;100.00;101969.28;5065238;28;20028;-78
2024/02/28 06:57:41;;;;;;;48.00;33.92;;;;;;;0.96;100.00;101972.81;5062175;28;20393;-78
2024/02/28 07:00:18;;;;;;;45.72;33.38;;;;;;;1.02;100.00;101978.38;5064465;28;20036;-78
2024/02/28 07:02:44;;;;;;;46.72;33.35;;;;;;;1.11;100.00;101974.56;5056698;28;20021;-79
2024/02/28 07:05:10;;;;;;;47.03;32.60;;;;;;;1.19;100.00;101984.63;5064481;28;20048;-78
2024/02/28 07:07:35;;;;;;;46.85;32.65;;;;;;;1.26;100.00;101988.47;5062974;28;20033;-78
2024/02/28 07:10:05;;;;;;;46.10;32.90;;;;;;;1.31;100.00;101997.50;5063702;28;20376;-78
2024/02/28 07:12:31;;;;;;;46.08;32.58;;;;;;;1.36;100.00;101984.75;5063230;28;20035;-81
2024/02/28 07:14:57;;;;;;;44.92;32.72;;;;;;;1.42;100.00;101999.84;5062721;28;20025;-79
2024/02/28 07:17:22;;;;;;;44.38;32.63;;;;;;;1.44;100.00;101999.09;5064641;28;20029;-79
2024/02/28 07:19:48;;;;;;;44.47;31.65;;;;;;;1.46;100.00;102007.94;5060424;28;20063;-79
2024/02/28 07:22:13;;;;;;;42.60;30.92;;;;;;;1.49;100.00;102005.50;5057055;28;20032;-79
2024/02/28 07:24:39;;;;;;;43.63;31.33;;;;;;;1.52;100.00;102007.41;5062071;28;20498;-79
2024/02/28 07:27:04;;;;;;;43.35;31.27;;;;;;;1.53;100.00;102001.34;5063461;28;20486;-79
2024/02/28 07:29:29;;;;;;;42.63;30.30;;;;;;;1.56;100.00;101998.97;5063528;28;20024;-78
2024/02/28 07:31:55;;;;;;;42.25;30.98;;;;;;;1.54;100.00;101993.66;5062137;28;20033;-79
2024/02/28 07:34:20;;;;;;;42.67;30.55;;;;;;;1.62;100.00;102004.53;5063230;28;20028;-79
2024/02/28 07:36:45;;;;;;;42.58;30.83;;;;;;;1.66;100.00;102010.81;5061412;28;20082;-79
2024/02/28 07:39:14;;;;;;;43.00;30.63;;;;;;;1.73;100.00;102003.47;5064270;28;20040;-79
2024/02/28 07:41:41;;;;;;;42.95;31.23;;;;;;;1.85;100.00;102012.78;5061802;28;20041;-79
2024/02/28 07:44:07;;;;;;;43.30;30.60;;;;;;;1.91;100.00;102007.97;5062528;28;20051;-78
2024/02/28 07:46:33;;;;;;;41.90;30.25;;;;;;;1.95;100.00;102012.50;5062529;28;20029;-79
2024/02/28 07:48:58;;;;;;;41.13;30.02;;;;;;;2.02;100.00;102019.00;5061234;28;20033;-79
2024/02/28 07:51:23;;;;;;;42.08;31.45;;;;;;;2.06;100.00;102013.16;5064028;28;20035;-80
2024/02/28 07:53:49;;;;;;;40.97;29.40;;;;;;;2.15;100.00;102018.88;5060456;28;20029;-77
2024/02/28 07:56:18;;;;;;;39.65;29.42;;;;;;;2.22;100.00;102026.25;5064367;28;20047;-77
2024/02/28 07:58:45;;;;;;;41.03;28.83;;;;;;;2.26;100.00;102028.25;5057288;28;20033;-77
2024/02/28 08:01:11;;;;;;;40.60;28.70;;;;;;;2.31;100.00;102033.72;5063847;28;20027;-77
2024/02/28 08:03:36;;;;;;;38.22;27.60;;;;;;;2.40;100.00;102036.88;5061869;28;20103;-77
2024/02/28 08:06:01;;;;;;;39.75;28.52;;;;;;;2.45;100.00;102044.94;5062680;28;20079;-77
2024/02/28 08:08:27;;;;;;;38.90;28.35;;;;;;;2.48;100.00;102049.44;5063132;28;20124;-78
2024/02/28 08:10:52;;;;;;;38.70;27.58;;;;;;;2.56;100.00;102049.06;5061095;28;20468;-78
2024/02/28 08:13:19;;;;;;;39.30;28.70;;;;;;;2.70;100.00;102047.22;5064532;28;20530;-78
2024/02/28 08:15:44;;;;;;;40.90;28.52;;;;;;;2.81;100.00;102050.44;5056729;28;20451;-78
2024/02/28 08:18:12;;;;;;;39.58;28.30;;;;;;;2.96;100.00;102050.38;5064378;28;20089;-78
2024/02/28 08:20:38;;;;;;;39.40;27.02;;;;;;;3.09;100.00;102050.22;5061716;28;20020;-78
2024/02/28 08:23:04;;;;;;;38.97;28.60;;;;;;;3.21;100.00;102056.94;5061532;28;20033;-78
2024/02/28 08:25:30;;;;;;;38.95;27.25;;;;;;;3.26;100.00;102050.22;5062605;28;20116;-78
2024/02/28 08:27:56;;;;;;;39.50;27.50;;;;;;;3.23;100.00;102060.50;5060383;28;20148;-78
2024/02/28 08:30:21;;;;;;;39.58;27.73;;;;;;;3.22;100.00;102069.16;5063636;28;20116;-78
2024/02/28 08:32:47;;;;;;;37.65;26.85;;;;;;;3.28;100.00;102074.75;5060901;28;20056;-78
2024/02/28 08:35:12;;;;;;;39.22;27.67;;;;;;;3.33;100.00;102064.53;5063662;28;20483;-78
2024/02/28 08:37:40;;;;;;;39.65;27.05;;;;;;;3.34;100.00;102080.28;5061409;28;20490;-77
2024/02/28 08:40:07;;;;;;;37.75;26.98;;;;;;;3.35;100.00;102075.94;5063335;28;20060;-77
2024/02/28 08:42:33;;;;;;;38.50;26.23;;;;;;;3.38;100.00;102070.88;5062094;28;20029;-77
2024/02/28 08:44:59;;;;;;;39.95;27.48;;;;;;;3.55;100.00;102079.63;5061962;28;20082;-77
2024/02/28 08:47:25;;;;;;;38.88;27.20;;;;;;;3.71;100.00;102074.38;5063199;28;20025;-77
2024/02/28 08:49:54;;;;;;;38.50;27.13;;;;;;;3.89;100.00;102076.13;5060782;28;20368;-77
2024/02/28 08:52:21;;;;;;;40.15;27.35;;;;;;;4.23;100.00;102072.63;5064074;28;20360;-78
2024/02/28 08:54:47;;;;;;;39.58;26.77;;;;;;;4.40;100.00;102070.81;5060782;28;20116;-78
2024/02/28 08:57:13;;;;;;;39.30;24.98;;;;;;;4.24;100.00;102072.69;5063533;28;20496;-77
2024/02/28 08:59:39;;;;;;;42.42;25.40;;;;;;;4.19;100.00;102072.47;5061377;28;20044;-78
2024/02/28 09:02:05;;;;;;;43.30;26.17;;;;;;;4.05;100.00;102073.50;5062647;28;20087;-77
2024/02/28 09:04:31;;;;;;;38.40;25.20;;;;;;;3.98;100.00;102074.00;5062226;28;20028;-77
2024/02/28 09:06:57;;;;;;;39.33;25.40;;;;;;;3.97;100.00;102075.69;5064888;28;20053;-78
2024/02/28 09:09:22;;;;;;;37.55;25.40;;;;;;;4.02;100.00;102073.34;5067364;28;20028;-77
2024/02/28 09:11:48;;;;;;;38.60;25.48;;;;;;;4.16;100.00;102085.38;5063919;28;20029;-77
2024/02/28 09:14:13;;;;;;;38.20;25.25;;;;;;;4.32;100.00;102084.44;5067158;28;20375;-78
2024/02/28 09:16:38;;;;;;;38.17;24.80;;;;;;;4.47;100.00;102076.47;5064918;28;20032;-78
2024/02/28 09:19:04;;;;;;;37.78;24.65;;;;;;;4.59;100.00;102068.28;5064546;28;20037;-77
2024/02/28 09:21:30;;;;;;;38.42;25.05;;;;;;;4.73;100.00;102068.94;5064584;28;20071;-78
2024/02/28 09:23:55;;;;;;;37.55;24.23;;;;;;;4.86;100.00;102058.25;5064672;28;20017;-78
2024/02/28 09:26:20;;;;;;;35.50;23.83;;;;;;;4.92;100.00;102061.97;5067105;28;20033;-78
2024/02/28 09:28:46;;;;;;;38.28;23.98;;;;;;;4.83;100.00;102065.94;5063607;28;20041;-78
2024/02/28 09:31:12;;;;;;;38.17;24.17;;;;;;;4.86;100.00;102059.94;5066669;28;20085;-78
2024/02/28 09:33:37;;;;;;;36.30;24.02;;;;;;;4.88;100.00;102053.94;5064610;28;20109;-78
2024/02/28 09:36:04;;;;;;;38.25;23.77;;;;;;;4.91;100.00;102050.59;5065425;28;20491;-78
2024/02/28 09:38:29;;;;;;;37.47;23.60;;;;;;;4.90;100.00;102059.25;5064402;28;20384;-78
2024/02/28 09:40:55;;;;;;;39.28;24.08;;;;;;;4.82;100.00;102056.28;5062901;28;20036;-78
2024/02/28 09:43:31;;;;;;;37.25;23.33;;;;;;;4.81;100.00;102057.09;5066992;28;20039;-78
2024/02/28 09:46:04;;;;;;;36.55;23.90;;;;;;;4.79;100.00;102061.41;5064474;28;20414;-80
2024/02/28 09:48:30;;;;;;;;;;;;;;;5.06;100.00;102066.13;5065802;28;20032;-80
2024/02/28 09:50:57;;;;;;;38.50;24.33;;;;;;;5.05;100.00;102060.00;5063989;28;20329;-80
2024/02/28 09:53:22;;;;;;;39.28;24.75;;;;;;;5.26;100.00;102053.94;5066608;28;20033;-80
2024/02/28 09:55:49;;;;;;;37.15;24.35;;;;;;;5.42;100.00;102055.53;5063328;28;20388;-80
2024/02/28 09:58:16;;;;;;;37.72;23.75;;;;;;;5.64;100.00;102052.13;5058265;28;20524;-80
2024/02/28 10:00:44;;;;;;;38.53;24.38;;;;;;;5.88;100.00;102057.53;5063852;28;20071;-80
2024/02/28 10:03:13;;;;;;;37.92;23.02;;;;;;;5.96;100.00;102057.84;5065644;28;20565;-80
2024/02/28 10:05:39;;;;;;;36.90;22.83;;;;;;;6.31;100.00;102053.22;5065698;28;20437;-80
2024/02/28 10:08:05;;;;;;;37.33;23.00;;;;;;;6.61;100.00;102064.06;5065038;28;20041;-79
2024/02/28 10:10:31;;;;;;;36.78;22.80;;;;;;;6.49;100.00;102058.31;5063406;28;20039;-80
2024/02/28 10:12:58;;;;;;;36.63;22.25;;;;;;;6.23;100.00;102060.78;5063772;28;20033;-81
2024/02/28 10:15:26;;;;;;;35.58;22.15;;;;;;;6.07;100.00;102072.38;5065649;28;20386;-80
2024/02/28 10:17:51;;;;;;;39.10;22.55;;;;;;;6.13;100.00;102068.19;5062651;28;20031;-80
2024/02/28 10:20:17;;;;;;;38.38;22.67;;;;;;;6.14;100.00;102070.88;5065153;28;20033;-80
2024/02/28 10:22:42;;;;;;;37.13;22.30;;;;;;;6.20;100.00;102071.13;5062048;28;20488;-80
2024/02/28 10:25:08;;;;;;;37.83;22.10;;;;;;;6.18;100.00;102066.69;5065022;28;20403;-80
2024/02/28 10:27:34;;;;;;;37.03;21.15;;;;;;;6.07;100.00;102063.59;5064302;28;20056;-80
2024/02/28 10:30:04;;;;;;;35.97;21.42;;;;;;;6.00;100.00;102062.44;5063930;28;20388;-80
2024/02/28 10:32:31;;;;;;;35.45;21.60;;;;;;;5.97;100.00;102059.69;5064604;28;20106;-80
2024/02/28 10:34:57;;;;;;;37.15;21.73;;;;;;;5.99;100.00;102059.75;5063245;28;20021;-79
2024/02/28 10:37:23;;;;;;;38.78;21.85;;;;;;;6.05;100.00;102060.91;5065926;28;20112;-80
2024/02/28 10:39:52;;;;;;;33.97;21.15;;;;;;;6.14;100.00;102064.75;5061156;28;20438;-80
2024/02/28 10:42:19;;;;;;;36.83;21.67;;;;;;;6.14;100.00;102055.13;5058346;28;20420;-79
2024/02/28 10:44:44;;;;;;;34.63;21.02;;;;;;;6.22;100.00;102053.75;5065628;28;20036;-79
2024/02/28 10:47:11;;;;;;;34.33;21.60;;;;;;;6.30;100.00;102058.41;5063007;28;20028;-79
2024/02/28 10:49:36;;;;;;;34.00;21.45;;;;;;;6.38;100.00;102060.50;5064494;28;20063;-79
2024/02/28 10:52:05;;;;;;;33.92;21.30;;;;;;;6.49;100.00;102053.06;5064075;28;20033;-79
2024/02/28 10:54:31;;;;;;;35.00;21.48;;;;;;;6.62;100.00;102049.19;5062016;28;20385;-80
2024/02/28 10:56:57;;;;;;;35.38;21.65;;;;;;;6.83;100.00;102043.91;5064517;28;20029;-80
2024/02/28 10:59:25;;;;;;;33.08;20.95;;;;;;;7.15;100.00;102037.22;5062483;28;20066;-79
2024/02/28 11:01:51;;;;;;;32.72;20.52;;;;;;;7.43;100.00;102030.34;5065779;28;20401;-79
2024/02/28 11:04:17;;;;;;;32.10;20.52;;;;;;;7.68;100.00;102034.75;5057796;28;20480;-78